Time;durP1;ratioP1;P1;durP2;ratioP2;P2;SDS_P1;SDS_P2;PMS_P1;PMS_P2;Temp;Humidity;BMP_temperature;BMP_pressure;BME280_temperature;BME280_humidity;BME280_pressure;Samples;Min_cycle;Max_cycle;Signal;HPM_P1;HPM_P2
2022/03/24 00:01:29;;;;;;;47.55;27.10;;;;;;;;;;5091412;28;20048;-60
2022/03/24 00:03:55;;;;;;;41.30;25.52;;;;;;;;;;5089392;28;20032;-60
2022/03/24 00:06:21;;;;;;;45.63;26.45;;;;;;;;;;5090495;28;20070;-60
2022/03/24 00:08:47;;;;;;;50.75;28.20;;;;;;;;;;5090766;28;20032;-60
2022/03/24 00:11:13;;;;;;;47.88;27.60;;;;;;;;;;5089754;28;20039;-60
2022/03/24 00:13:39;;;;;;;49.08;28.50;;;;;;;;;;5090857;28;20086;-60
2022/03/24 00:16:05;;;;;;;51.28;28.88;;;;;;;;;;5090827;28;20047;-60
2022/03/24 00:18:32;;;;;;;45.80;28.27;;;;;;;;;;5089617;28;20036;-60
2022/03/24 00:21:01;;;;;;;46.47;28.08;;;;;;;;;;5094597;28;20056;-60
2022/03/24 00:23:27;;;;;;;46.92;29.35;;;;;;;;;;5094804;28;20028;-60
2022/03/24 00:25:53;;;;;;;45.33;28.88;;;;;;;;;;5094066;28;20044;-60
2022/03/24 00:28:19;;;;;;;51.05;26.48;;;;;;;;;;5094423;28;20071;-60
2022/03/24 00:30:46;;;;;;;44.83;26.83;;;;;;;;;;5094758;28;20040;-60
2022/03/24 00:33:12;;;;;;;41.80;26.80;;;;;;;;;;5093184;28;20450;-60
2022/03/24 00:35:38;;;;;;;46.20;26.60;;;;;;;;;;5093923;28;20074;-60
2022/03/24 00:38:07;;;;;;;42.25;25.42;;;;;;;;;;5094316;28;20443;-60
2022/03/24 00:40:34;;;;;;;42.75;26.48;;;;;;;;;;5094195;28;20040;-60
2022/03/24 00:43:01;;;;;;;48.38;27.60;;;;;;;;;;5094192;28;20549;-60
2022/03/24 00:45:29;;;;;;;45.65;27.42;;;;;;;;;;5094040;28;20042;-60
2022/03/24 00:47:55;;;;;;;46.60;26.77;;;;;;;;;;5093015;28;20040;-60
2022/03/24 00:50:21;;;;;;;45.35;27.73;;;;;;;;;;5093841;28;20447;-60
2022/03/24 00:52:47;;;;;;;44.60;26.65;;;;;;;;;;5094213;28;20028;-60
2022/03/24 00:55:18;;;;;;;41.78;23.90;;;;;;;;;;5093738;28;20063;-60
2022/03/24 00:57:45;;;;;;;50.20;27.48;;;;;;;;;;5094134;28;20064;-60
2022/03/24 01:00:15;;;;;;;47.78;27.55;;;;;;;;;;5093674;28;20047;-60
2022/03/24 01:02:41;;;;;;;45.92;27.63;;;;;;;;;;5092201;28;20109;-59
2022/03/24 01:05:08;;;;;;;45.38;27.45;;;;;;;;;;5093232;28;20064;-60
2022/03/24 01:07:34;;;;;;;48.92;27.15;;;;;;;;;;5093468;28;20040;-60
2022/03/24 01:10:00;;;;;;;48.90;28.75;;;;;;;;;;5094063;28;20513;-60
2022/03/24 01:12:26;;;;;;;51.95;30.13;;;;;;;;;;5094041;28;20040;-60
2022/03/24 01:14:53;;;;;;;46.45;28.17;;;;;;;;;;5092504;28;20106;-61
2022/03/24 01:17:19;;;;;;;47.33;27.90;;;;;;;;;;5093153;28;20055;-60
2022/03/24 01:19:45;;;;;;;50.85;28.65;;;;;;;;;;5093526;28;20121;-60
2022/03/24 01:22:11;;;;;;;49.30;28.83;;;;;;;;;;5093483;28;20093;-60
2022/03/24 01:24:38;;;;;;;46.75;29.52;;;;;;;;;;5093523;28;20044;-60
2022/03/24 01:27:05;;;;;;;50.05;29.67;;;;;;;;;;5093166;28;20390;-60
2022/03/24 01:29:31;;;;;;;52.05;30.08;;;;;;;;;;5093782;28;20469;-60
2022/03/24 01:31:57;;;;;;;51.03;31.75;;;;;;;;;;5091419;28;20032;-60
2022/03/24 01:34:24;;;;;;;55.63;31.75;;;;;;;;;;5093169;28;20071;-60
2022/03/24 01:36:50;;;;;;;51.35;30.45;;;;;;;;;;5093415;28;20486;-60
2022/03/24 01:39:16;;;;;;;48.17;30.20;;;;;;;;;;5092408;28;20047;-60
2022/03/24 01:41:45;;;;;;;51.50;30.75;;;;;;;;;;5092929;28;20044;-60
2022/03/24 01:44:12;;;;;;;53.00;29.80;;;;;;;;;;5092270;28;20043;-60
2022/03/24 01:46:38;;;;;;;54.80;31.90;;;;;;;;;;5093074;28;20032;-60
2022/03/24 01:49:04;;;;;;;53.08;31.23;;;;;;;;;;5092887;28;20140;-60
2022/03/24 01:51:30;;;;;;;51.85;30.90;;;;;;;;;;5093502;28;20504;-60
2022/03/24 01:53:59;;;;;;;53.58;29.30;;;;;;;;;;5092685;28;20047;-60
2022/03/24 01:56:26;;;;;;;50.13;28.35;;;;;;;;;;5091707;28;20048;-59
2022/03/24 01:58:52;;;;;;;49.80;29.35;;;;;;;;;;5092059;28;20039;-59
2022/03/24 02:01:34;;;;;;;46.20;27.75;;;;;;;;;;5093039;28;20545;-59
2022/03/24 02:04:01;;;;;;;45.88;26.80;;;;;;;;;;5092256;28;20044;-60
2022/03/24 02:06:27;;;;;;;48.28;29.38;;;;;;;;;;5092287;28;20040;-59
2022/03/24 02:08:55;;;;;;;51.15;30.17;;;;;;;;;;5092490;28;20222;-59
2022/03/24 02:11:21;;;;;;;48.90;28.38;;;;;;;;;;5092659;28;20123;-60
2022/03/24 02:13:47;;;;;;;47.92;29.23;;;;;;;;;;5090983;28;20114;-59
2022/03/24 02:16:13;;;;;;;47.35;27.35;;;;;;;;;;5092678;28;20497;-59
2022/03/24 02:18:39;;;;;;;48.65;28.80;;;;;;;;;;5092021;28;20040;-59
2022/03/24 02:21:05;;;;;;;50.03;27.77;;;;;;;;;;5092378;28;20071;-60
2022/03/24 02:23:32;;;;;;;48.63;28.77;;;;;;;;;;5091887;28;20106;-59
2022/03/24 02:25:58;;;;;;;48.10;28.27;;;;;;;;;;5092220;28;20054;-60
2022/03/24 02:28:24;;;;;;;47.05;28.67;;;;;;;;;;5088343;28;20039;-59
2022/03/24 02:30:51;;;;;;;54.83;30.02;;;;;;;;;;5091908;28;20032;-59
2022/03/24 02:33:23;;;;;;;47.33;28.67;;;;;;;;;;5091748;28;20085;-60
2022/03/24 02:35:51;;;;;;;49.95;27.83;;;;;;;;;;5091936;28;20044;-59
2022/03/24 02:38:19;;;;;;;50.95;29.33;;;;;;;;;;5090577;28;20059;-59
2022/03/24 02:40:46;;;;;;;47.40;27.88;;;;;;;;;;5091557;28;20381;-59
2022/03/24 02:43:12;;;;;;;47.47;28.23;;;;;;;;;;5090775;28;20047;-59
2022/03/24 02:45:38;;;;;;;46.75;27.80;;;;;;;;;;5090099;28;20042;-59
2022/03/24 02:48:04;;;;;;;47.78;27.77;;;;;;;;;;5090174;28;20474;-59
2022/03/24 02:50:30;;;;;;;47.72;28.35;;;;;;;;;;5092143;28;20036;-59
2022/03/24 02:52:56;;;;;;;54.00;29.85;;;;;;;;;;5092337;28;20042;-59
2022/03/24 02:55:22;;;;;;;46.50;28.70;;;;;;;;;;5091276;28;20040;-60
2022/03/24 02:57:48;;;;;;;44.97;27.52;;;;;;;;;;5086933;28;20042;-59
2022/03/24 03:00:15;;;;;;;47.15;28.90;;;;;;;;;;5084852;28;20036;-59
2022/03/24 03:02:41;;;;;;;50.72;29.58;;;;;;;;;;5072905;28;20115;-59
2022/03/24 03:05:07;;;;;;;45.97;26.83;;;;;;;;;;5090875;28;20458;-60
2022/03/24 03:07:33;;;;;;;49.58;29.05;;;;;;;;;;5091131;28;20035;-59
2022/03/24 03:09:59;;;;;;;51.40;28.45;;;;;;;;;;5092148;28;20405;-59
2022/03/24 03:12:28;;;;;;;50.80;28.63;;;;;;;;;;5091746;28;20067;-59
2022/03/24 03:14:56;;;;;;;50.35;29.13;;;;;;;;;;5091042;28;20120;-59
2022/03/24 03:17:22;;;;;;;53.17;30.13;;;;;;;;;;5089648;28;20674;-59
2022/03/24 03:19:48;;;;;;;50.88;29.60;;;;;;;;;;5090956;28;20119;-59
2022/03/24 03:22:14;;;;;;;52.28;29.42;;;;;;;;;;5089640;28;20147;-60
2022/03/24 03:24:40;;;;;;;55.78;30.98;;;;;;;;;;5091075;28;20398;-60
2022/03/24 03:27:07;;;;;;;54.65;32.03;;;;;;;;;;5090977;28;20490;-59
2022/03/24 03:29:33;;;;;;;52.42;29.98;;;;;;;;;;5091712;28;20040;-59
2022/03/24 03:32:00;;;;;;;52.83;29.20;;;;;;;;;;5091456;28;20127;-59
2022/03/24 03:34:26;;;;;;;50.30;30.75;;;;;;;;;;5088557;28;20471;-59
2022/03/24 03:36:56;;;;;;;51.33;30.38;;;;;;;;;;5091125;28;20050;-59
2022/03/24 03:39:23;;;;;;;55.63;30.35;;;;;;;;;;5091129;28;20115;-59
2022/03/24 03:41:49;;;;;;;53.63;30.33;;;;;;;;;;5090181;28;20047;-59
2022/03/24 03:44:15;;;;;;;56.85;31.02;;;;;;;;;;5091131;28;20040;-60
2022/03/24 03:46:42;;;;;;;54.40;31.70;;;;;;;;;;5089905;28;20046;-59
2022/03/24 03:49:08;;;;;;;56.08;32.88;;;;;;;;;;5091070;28;20176;-59
2022/03/24 03:51:35;;;;;;;55.55;30.67;;;;;;;;;;5091415;28;20066;-59
2022/03/24 03:54:01;;;;;;;54.72;32.17;;;;;;;;;;5091590;28;20036;-59
2022/03/24 03:56:28;;;;;;;57.15;31.88;;;;;;;;;;5095616;28;20182;-59
2022/03/24 03:58:54;;;;;;;51.53;30.48;;;;;;;;;;5093374;28;20040;-59
2022/03/24 04:01:20;;;;;;;54.30;32.53;;;;;;;;;;5093633;28;20062;-59
2022/03/24 04:03:47;;;;;;;61.88;33.47;;;;;;;;;;5094065;28;20032;-59
2022/03/24 04:06:13;;;;;;;58.13;32.60;;;;;;;;;;5095363;28;20040;-60
2022/03/24 04:08:41;;;;;;;55.13;32.38;;;;;;;;;;5094684;28;20040;-59
2022/03/24 04:11:07;;;;;;;54.42;31.42;;;;;;;;;;5094679;28;20047;-59
2022/03/24 04:13:37;;;;;;;54.00;29.38;;;;;;;;;;5094336;28;20078;-59
2022/03/24 04:16:03;;;;;;;54.92;30.20;;;;;;;;;;5093524;28;20539;-60
2022/03/24 04:18:29;;;;;;;48.38;29.73;;;;;;;;;;5094446;28;20028;-59
2022/03/24 04:20:56;;;;;;;54.17;30.55;;;;;;;;;;5094866;28;20047;-59
2022/03/24 04:23:22;;;;;;;52.20;29.48;;;;;;;;;;5094436;28;20220;-59
2022/03/24 04:25:48;;;;;;;52.53;29.70;;;;;;;;;;5094309;28;20051;-59
2022/03/24 04:28:17;;;;;;;50.58;28.80;;;;;;;;;;5094264;28;20119;-59
2022/03/24 04:30:44;;;;;;;49.35;29.02;;;;;;;;;;5096566;28;20112;-59
2022/03/24 04:33:10;;;;;;;52.25;30.52;;;;;;;;;;5099708;28;20040;-59
2022/03/24 04:35:36;;;;;;;52.60;30.88;;;;;;;;;;5094150;28;20409;-59
2022/03/24 04:38:04;;;;;;;51.90;29.75;;;;;;;;;;5094225;28;20051;-59
2022/03/24 04:40:30;;;;;;;55.35;31.27;;;;;;;;;;5094404;28;20048;-59
2022/03/24 04:42:57;;;;;;;59.90;32.00;;;;;;;;;;5094516;28;20036;-59
2022/03/24 04:45:24;;;;;;;55.78;32.95;;;;;;;;;;5090933;28;20054;-59
2022/03/24 04:47:51;;;;;;;62.03;33.80;;;;;;;;;;5093552;28;20521;-59
2022/03/24 04:50:17;;;;;;;63.45;34.78;;;;;;;;;;5093825;28;20073;-59
2022/03/24 04:52:44;;;;;;;63.53;33.85;;;;;;;;;;5093213;28;20070;-59
2022/03/24 04:55:10;;;;;;;60.85;33.17;;;;;;;;;;5094242;28;20039;-59
2022/03/24 04:57:36;;;;;;;60.85;33.55;;;;;;;;;;5093950;28;20494;-59
2022/03/24 05:00:04;;;;;;;56.03;33.08;;;;;;;;;;5093401;28;20068;-59
2022/03/24 05:02:30;;;;;;;57.50;31.85;;;;;;;;;;5091890;28;20046;-59
2022/03/24 05:04:56;;;;;;;56.67;32.45;;;;;;;;;;5088479;28;20111;-60
2022/03/24 05:07:22;;;;;;;56.22;31.75;;;;;;;;;;5092903;28;20420;-59
2022/03/24 05:09:52;;;;;;;54.90;31.02;;;;;;;;;;5093966;28;20061;-59
2022/03/24 05:12:18;;;;;;;54.10;31.67;;;;;;;;;;5093956;28;20044;-59
2022/03/24 05:14:44;;;;;;;56.20;31.38;;;;;;;;;;5091972;28;20043;-60
2022/03/24 05:17:12;;;;;;;57.08;31.85;;;;;;;;;;5093387;28;20084;-59
2022/03/24 05:19:39;;;;;;;58.70;32.42;;;;;;;;;;5093437;28;20047;-59
2022/03/24 05:22:05;;;;;;;55.55;32.15;;;;;;;;;;5093692;28;20080;-59
2022/03/24 05:24:31;;;;;;;55.83;31.85;;;;;;;;;;5093658;28;20137;-59
2022/03/24 05:26:57;;;;;;;56.78;32.55;;;;;;;;;;5093581;28;20500;-59
2022/03/24 05:29:23;;;;;;;56.20;31.60;;;;;;;;;;5092575;28;20047;-59
2022/03/24 05:31:49;;;;;;;56.10;32.85;;;;;;;;;;5088255;28;20044;-59
2022/03/24 05:34:15;;;;;;;56.17;32.50;;;;;;;;;;5087806;28;20121;-59
2022/03/24 05:36:41;;;;;;;63.10;33.75;;;;;;;;;;5086871;28;20040;-59
2022/03/24 05:39:08;;;;;;;58.17;33.20;;;;;;;;;;5088139;28;20044;-59
2022/03/24 05:41:36;;;;;;;61.28;33.75;;;;;;;;;;5092142;28;20079;-59
2022/03/24 05:44:06;;;;;;;58.95;31.42;;;;;;;;;;5092368;28;20046;-59
2022/03/24 05:46:31;;;;;;;55.30;31.42;;;;;;;;;;5093133;22;20418;-60
2022/03/24 05:48:58;;;;;;;58.05;32.55;;;;;;;;;;5061516;28;20045;-60
2022/03/24 05:51:24;;;;;;;59.55;34.70;;;;;;;;;;5072476;28;20462;-60
2022/03/24 05:53:50;;;;;;;57.65;32.05;;;;;;;;;;5071593;28;20052;-60
2022/03/24 05:56:16;;;;;;;59.58;33.60;;;;;;;;;;5081560;28;20085;-60
2022/03/24 05:58:43;;;;;;;59.40;33.85;;;;;;;;;;5089467;28;20047;-61
2022/03/24 06:01:09;;;;;;;64.55;34.35;;;;;;;;;;5090325;28;20267;-60
2022/03/24 06:03:36;;;;;;;62.85;34.65;;;;;;;;;;5089084;28;20035;-60
2022/03/24 06:06:06;;;;;;;58.85;34.03;;;;;;;;;;5087895;28;20039;-60
2022/03/24 06:08:33;;;;;;;60.65;32.72;;;;;;;;;;5082625;28;20092;-60
2022/03/24 06:11:00;;;;;;;56.13;32.92;;;;;;;;;;5088828;28;20047;-60
2022/03/24 06:13:26;;;;;;;66.10;33.92;;;;;;;;;;5091867;28;20067;-60
2022/03/24 06:15:53;;;;;;;61.70;33.22;;;;;;;;;;5089470;28;20036;-61
2022/03/24 06:18:20;;;;;;;58.40;32.97;;;;;;;;;;5088139;28;20051;-60
2022/03/24 06:20:46;;;;;;;51.50;29.80;;;;;;;;;;5091144;28;20044;-60
2022/03/24 06:23:12;;;;;;;53.65;30.23;;;;;;;;;;5091479;28;20043;-60
2022/03/24 06:25:38;;;;;;;56.20;32.65;;;;;;;;;;5091437;28;20032;-60
2022/03/24 06:28:06;;;;;;;60.22;32.38;;;;;;;;;;5090104;28;20145;-60
2022/03/24 06:30:32;;;;;;;62.13;33.90;;;;;;;;;;5090690;28;20082;-60
2022/03/24 06:32:59;;;;;;;57.28;33.75;;;;;;;;;;5091289;28;20068;-60
2022/03/24 06:35:25;;;;;;;60.75;35.05;;;;;;;;;;5089742;28;20036;-61
2022/03/24 06:37:52;;;;;;;63.47;35.63;;;;;;;;;;5087472;28;20120;-60
2022/03/24 06:40:18;;;;;;;64.72;35.25;;;;;;;;;;5081729;28;20064;-60
2022/03/24 06:42:45;;;;;;;60.58;35.08;;;;;;;;;;5084546;28;20833;-60
2022/03/24 06:45:11;;;;;;;59.08;33.83;;;;;;;;;;5085171;28;20040;-60
2022/03/24 06:47:39;;;;;;;58.80;33.67;;;;;;;;;;5087870;28;20024;-61
2022/03/24 06:50:05;;;;;;;64.68;35.33;;;;;;;;;;5090623;28;20554;-60
2022/03/24 06:52:31;;;;;;;60.38;34.65;;;;;;;;;;5086060;28;20042;-60
2022/03/24 06:54:57;;;;;;;69.72;37.08;;;;;;;;;;5086764;28;20081;-60
2022/03/24 06:57:24;;;;;;;57.92;33.45;;;;;;;;;;5086942;28;20053;-60
2022/03/24 06:59:50;;;;;;;67.50;33.78;;;;;;;;;;5088577;28;20097;-60
2022/03/24 07:02:16;;;;;;;59.63;34.13;;;;;;;;;;5086502;28;20041;-60
2022/03/24 07:04:42;;;;;;;67.45;36.08;;;;;;;;;;5089721;28;20039;-60
2022/03/24 07:07:08;;;;;;;73.25;40.00;;;;;;;;;;5091664;28;20197;-60
2022/03/24 07:09:35;;;;;;;75.53;41.20;;;;;;;;;;5088287;28;20505;-60
2022/03/24 07:12:01;;;;;;;70.15;40.20;;;;;;;;;;5090017;28;20100;-60
2022/03/24 07:14:28;;;;;;;73.25;40.13;;;;;;;;;;5088107;28;20036;-60
2022/03/24 07:16:54;;;;;;;73.78;40.10;;;;;;;;;;5082926;28;20042;-60
2022/03/24 07:19:20;;;;;;;75.97;40.40;;;;;;;;;;5083663;28;20047;-60
2022/03/24 07:21:46;;;;;;;73.57;41.47;;;;;;;;;;5085235;28;20040;-60
2022/03/24 07:24:12;;;;;;;81.53;44.00;;;;;;;;;;5085311;28;20562;-60
2022/03/24 07:26:38;;;;;;;75.93;41.35;;;;;;;;;;5080776;28;20040;-60
2022/03/24 07:29:04;;;;;;;72.18;42.30;;;;;;;;;;5089034;28;20188;-60
2022/03/24 07:31:31;;;;;;;75.82;40.97;;;;;;;;;;5090529;28;20040;-60
2022/03/24 07:33:57;;;;;;;77.55;42.55;;;;;;;;;;5088491;28;20564;-60
2022/03/24 07:36:24;;;;;;;79.93;42.97;;;;;;;;;;5082384;28;20036;-60
2022/03/24 07:38:54;;;;;;;78.20;41.08;;;;;;;;;;5096142;28;20090;-60
2022/03/24 07:41:21;;;;;;;74.45;41.45;;;;;;;;;;5078843;28;20449;-60
2022/03/24 07:43:46;;;;;;;72.68;40.67;;;;;;;;;;5092292;28;20028;-60
2022/03/24 07:46:12;;;;;;;76.43;42.13;;;;;;;;;;5096491;28;20520;-60
2022/03/24 07:48:39;;;;;;;74.50;41.60;;;;;;;;;;5090670;28;20105;-60
2022/03/24 07:51:05;;;;;;;70.80;42.53;;;;;;;;;;5077578;28;20043;-60
2022/03/24 07:53:49;;;;;;;69.43;40.15;;;;;;;;;;5078185;28;20044;-60
2022/03/24 07:56:17;;;;;;;68.45;38.63;;;;;;;;;;5077608;28;20041;-60
2022/03/24 07:58:43;;;;;;;69.07;39.45;;;;;;;;;;5078662;28;20478;-60
2022/03/24 08:01:09;;;;;;;67.90;39.40;;;;;;;;;;5091574;28;20039;-60
2022/03/24 08:03:35;;;;;;;67.60;37.95;;;;;;;;;;5088245;28;20044;-60
2022/03/24 08:06:02;;;;;;;68.35;38.10;;;;;;;;;;5098086;28;20036;-60
2022/03/24 08:08:28;;;;;;;68.50;37.92;;;;;;;;;;5096236;28;20417;-60
2022/03/24 08:10:54;;;;;;;61.95;37.67;;;;;;;;;;5084359;28;20040;-60
2022/03/24 08:13:21;;;;;;;64.78;38.00;;;;;;;;;;5078529;28;20398;-60
2022/03/24 08:15:47;;;;;;;70.82;39.28;;;;;;;;;;5095582;28;20043;-60
2022/03/24 08:18:14;;;;;;;65.82;36.40;;;;;;;;;;5097487;28;20083;-60
2022/03/24 08:20:42;;;;;;;68.95;37.00;;;;;;;;;;5092141;28;20093;-60
2022/03/24 08:23:08;;;;;;;63.40;36.22;;;;;;;;;;5096136;28;20040;-60
2022/03/24 08:25:35;;;;;;;63.35;35.17;;;;;;;;;;5082981;28;20504;-60
2022/03/24 08:28:02;;;;;;;67.00;37.08;;;;;;;;;;5080392;28;20054;-60
2022/03/24 08:30:28;;;;;;;63.35;34.83;;;;;;;;;;5089322;28;20036;-60
2022/03/24 08:32:54;;;;;;;59.08;34.50;;;;;;;;;;5081926;28;20040;-60
2022/03/24 08:35:20;;;;;;;62.47;35.08;;;;;;;;;;5091920;28;20036;-60
2022/03/24 08:37:46;;;;;;;56.95;34.50;;;;;;;;;;5091694;28;20032;-60
2022/03/24 08:40:13;;;;;;;60.03;34.10;;;;;;;;;;5087952;28;20046;-60
2022/03/24 08:42:40;;;;;;;60.25;35.20;;;;;;;;;;5093747;28;20040;-60
2022/03/24 08:45:07;;;;;;;60.20;35.15;;;;;;;;;;5092070;28;20101;-60
2022/03/24 08:47:33;;;;;;;55.80;34.28;;;;;;;;;;5079359;28;20121;-60
2022/03/24 08:49:59;;;;;;;66.90;35.92;;;;;;;;;;5074097;28;20036;-60
2022/03/24 08:52:27;;;;;;;64.05;35.28;;;;;;;;;;5073704;28;20036;-60
2022/03/24 08:54:54;;;;;;;59.00;33.90;;;;;;;;;;5074071;28;20048;-60
2022/03/24 08:57:25;;;;;;;57.72;33.63;;;;;;;;;;5075022;28;20123;-60
2022/03/24 08:59:51;;;;;;;55.95;33.95;;;;;;;;;;5094072;28;20524;-61
2022/03/24 09:02:17;;;;;;;60.42;33.80;;;;;;;;;;5090941;28;20052;-60
2022/03/24 09:04:43;;;;;;;61.72;34.92;;;;;;;;;;5090518;28;20032;-60
2022/03/24 09:07:10;;;;;;;60.83;35.60;;;;;;;;;;5093993;28;20040;-60
2022/03/24 09:09:36;;;;;;;57.05;33.42;;;;;;;;;;5089739;28;20051;-60
2022/03/24 09:12:02;;;;;;;60.40;34.72;;;;;;;;;;5094029;28;20083;-60
2022/03/24 09:14:28;;;;;;;60.00;34.05;;;;;;;;;;5093359;28;20036;-60
2022/03/24 09:16:54;;;;;;;59.35;33.83;;;;;;;;;;5094115;28;20105;-60
2022/03/24 09:19:20;;;;;;;55.53;33.72;;;;;;;;;;5079877;28;20049;-60
2022/03/24 09:21:46;;;;;;;59.80;33.83;;;;;;;;;;5092287;28;20384;-60
2022/03/24 09:24:12;;;;;;;59.85;32.97;;;;;;;;;;5093861;28;20094;-60
2022/03/24 09:26:38;;;;;;;54.63;33.97;;;;;;;;;;5089212;28;20036;-61
2022/03/24 09:29:04;;;;;;;57.97;34.00;;;;;;;;;;5092502;28;20119;-60
2022/03/24 09:31:30;;;;;;;60.47;34.17;;;;;;;;;;5100228;28;20118;-60
2022/03/24 09:33:56;;;;;;;54.72;33.45;;;;;;;;;;5114231;28;20560;-60
2022/03/24 09:36:22;;;;;;;61.80;34.47;;;;;;;;;;5084675;28;20134;-60
2022/03/24 09:38:48;;;;;;;56.72;33.65;;;;;;;;;;5079935;28;20044;-60
2022/03/24 09:41:16;;;;;;;58.90;33.85;;;;;;;;;;5092960;28;20044;-60
2022/03/24 09:43:43;;;;;;;52.83;32.70;;;;;;;;;;5086532;28;20036;-61
2022/03/24 09:46:09;;;;;;;56.72;32.80;;;;;;;;;;5089979;28;20236;-60
2022/03/24 09:48:35;;;;;;;63.00;33.45;;;;;;;;;;5095064;28;20086;-60
2022/03/24 09:51:02;;;;;;;56.30;34.83;;;;;;;;;;5092617;28;20048;-61
2022/03/24 09:53:28;;;;;;;57.63;34.45;;;;;;;;;;5092532;28;20044;-60
2022/03/24 09:55:55;;;;;;;56.88;32.92;;;;;;;;;;5092747;28;20063;-61
2022/03/24 09:58:25;;;;;;;57.97;32.97;;;;;;;;;;5084455;28;20142;-60
2022/03/24 10:00:51;;;;;;;54.35;33.03;;;;;;;;;;5072463;28;20098;-60
2022/03/24 10:03:18;;;;;;;60.25;33.97;;;;;;;;;;5083002;28;20032;-61
2022/03/24 10:05:53;;;;;;;48.97;30.58;;;;;;;;;;5093032;28;20054;-61
2022/03/24 10:08:19;;;;;;;51.25;31.33;;;;;;;;;;5078827;28;20032;-60
2022/03/24 10:10:45;;;;;;;59.65;33.30;;;;;;;;;;5072884;28;20109;-60
2022/03/24 10:13:11;;;;;;;53.28;32.35;;;;;;;;;;5075596;28;20077;-60
2022/03/24 10:15:38;;;;;;;55.53;32.65;;;;;;;;;;5077190;28;20040;-60
2022/03/24 10:18:04;;;;;;;52.25;32.00;;;;;;;;;;5086475;28;20066;-60
2022/03/24 10:20:32;;;;;;;54.53;31.80;;;;;;;;;;5091743;28;20036;-60
2022/03/24 10:23:05;;;;;;;54.10;31.85;;;;;;;;;;5087570;28;20078;-60
2022/03/24 10:25:33;;;;;;;53.85;32.15;;;;;;;;;;5077793;28;20398;-60
2022/03/24 10:28:07;;;;;;;52.28;30.55;;;;;;;;;;5084881;28;20040;-60
2022/03/24 10:30:52;;;;;;;53.08;30.92;;;;;;;;;;5083191;28;20044;-61
2022/03/24 10:33:28;;;;;;;51.75;30.27;;;;;;;;;;5085462;28;20037;-61
2022/03/24 10:36:08;;;;;;;56.30;30.90;;;;;;;;;;5092626;28;20040;-60
2022/03/24 10:38:35;;;;;;;56.20;30.73;;;;;;;;;;5089316;28;20028;-60
2022/03/24 10:41:12;;;;;;;52.53;29.60;;;;;;;;;;5086736;28;20282;-61
2022/03/24 10:43:38;;;;;;;51.00;30.90;;;;;;;;;;5074125;28;20036;-61
2022/03/24 10:46:12;;;;;;;54.03;31.17;;;;;;;;;;5076915;28;20036;-60
2022/03/24 10:48:38;;;;;;;49.05;31.40;;;;;;;;;;5087987;28;20123;-60
2022/03/24 10:51:04;;;;;;;54.08;31.33;;;;;;;;;;5091551;28;20128;-60
2022/03/24 10:53:37;;;;;;;53.92;31.60;;;;;;;;;;5085527;28;20055;-60
2022/03/24 10:56:07;;;;;;;53.83;28.88;;;;;;;;;;5083125;28;21552;-60
2022/03/24 10:58:38;;;;;;;49.67;29.88;;;;;;;;;;5076815;28;20048;-61
2022/03/24 11:01:08;;;;;;;47.72;27.70;;;;;;;;;;5090204;28;20048;-61
2022/03/24 11:03:34;;;;;;;46.15;26.98;;;;;;;;;;5079557;28;20114;-61
2022/03/24 11:06:08;;;;;;;42.13;23.27;;;;;;;;;;5089480;28;20039;-61
2022/03/24 11:08:34;;;;;;;44.85;25.95;;;;;;;;;;5086509;28;20044;-61
2022/03/24 11:11:00;;;;;;;41.08;25.38;;;;;;;;;;5085527;28;20048;-60
2022/03/24 11:13:28;;;;;;;42.05;25.70;;;;;;;;;;5085014;28;20127;-61
2022/03/24 11:15:54;;;;;;;42.90;25.58;;;;;;;;;;5073840;28;20040;-61
2022/03/24 11:18:25;;;;;;;43.33;24.80;;;;;;;;;;5071390;28;20115;-61
2022/03/24 11:20:54;;;;;;;32.42;19.13;;;;;;;;;;5071398;28;20041;-61
2022/03/24 11:23:20;;;;;;;35.22;21.05;;;;;;;;;;5080736;28;20162;-61
2022/03/24 11:25:46;;;;;;;36.85;21.23;;;;;;;;;;5090922;28;20039;-61
2022/03/24 11:28:14;;;;;;;28.02;18.33;;;;;;;;;;5083733;28;20036;-61
2022/03/24 11:30:40;;;;;;;35.83;20.25;;;;;;;;;;5071200;28;20045;-61
2022/03/24 11:33:08;;;;;;;30.98;19.40;;;;;;;;;;5076645;28;20374;-61
2022/03/24 11:35:34;;;;;;;40.83;21.10;;;;;;;;;;5087715;28;20041;-61
2022/03/24 11:38:02;;;;;;;34.58;21.15;;;;;;;;;;5073732;28;20123;-61
2022/03/24 11:40:29;;;;;;;39.25;23.60;;;;;;;;;;5082165;28;20038;-61
2022/03/24 11:43:08;;;;;;;37.03;22.25;;;;;;;;;;5085178;28;20074;-61
2022/03/24 11:48:15;;;;;;;;;;;;;;;;;;5062278;28;20049;-61
2022/03/24 11:50:45;;;;;;;32.42;21.05;;;;;;;;;;5069367;28;19922;-61
2022/03/24 11:53:11;;;;;;;32.55;20.65;;;;;;;;;;5070247;28;20036;-61
2022/03/24 11:55:37;;;;;;;31.85;20.40;;;;;;;;;;5070968;28;20044;-61
2022/03/24 11:58:04;;;;;;;32.47;21.20;;;;;;;;;;5070684;28;20401;-61
2022/03/24 12:00:30;;;;;;;35.40;21.08;;;;;;;;;;5070345;28;20432;-61
2022/03/24 12:02:59;;;;;;;29.58;19.30;;;;;;;;;;5062702;28;20048;-62
2022/03/24 12:05:45;;;;;;;29.35;20.33;;;;;;;;;;5071005;28;20053;-61
2022/03/24 12:08:11;;;;;;;31.48;20.20;;;;;;;;;;5070960;28;20044;-61
2022/03/24 12:10:37;;;;;;;32.72;20.65;;;;;;;;;;5071181;28;20040;-61
2022/03/24 12:13:21;;;;;;;32.92;20.25;;;;;;;;;;5070316;28;20032;-61
2022/03/24 12:16:06;;;;;;;36.40;20.13;;;;;;;;;;5065699;28;20040;-62
2022/03/24 12:18:42;;;;;;;30.73;19.83;;;;;;;;;;5066534;28;20047;-61
2022/03/24 12:21:08;;;;;;;31.13;19.70;;;;;;;;;;5074040;28;20048;-61
2022/03/24 12:23:57;;;;;;;29.52;19.38;;;;;;;;;;5074661;28;20437;-61
2022/03/24 12:26:23;;;;;;;29.48;19.85;;;;;;;;;;5062000;28;20104;-62
2022/03/24 12:29:09;;;;;;;30.42;20.00;;;;;;;;;;5073522;28;20040;-61
2022/03/24 12:31:42;;;;;;;29.52;19.60;;;;;;;;;;5069230;28;20044;-61
2022/03/24 12:34:14;;;;;;;33.58;20.17;;;;;;;;;;5074372;28;20071;-61
2022/03/24 12:36:40;;;;;;;29.40;19.95;;;;;;;;;;5074318;28;20036;-61
2022/03/24 12:39:08;;;;;;;27.80;19.60;;;;;;;;;;5074035;28;20040;-59
2022/03/24 12:41:35;;;;;;;29.30;19.73;;;;;;;;;;5056345;28;20471;-58
2022/03/24 12:44:03;;;;;;;30.02;18.85;;;;;;;;;;5072002;28;20049;-59
2022/03/24 12:46:33;;;;;;;33.60;18.92;;;;;;;;;;5065593;28;20044;-61
2022/03/24 12:49:25;;;;;;;27.45;18.15;;;;;;;;;;5073949;28;20040;-61
2022/03/24 12:51:51;;;;;;;;;;;;;;;;;;5074418;28;20048;-61
2022/03/24 12:54:19;;;;;;;29.13;17.60;;;;;;;;;;5073932;28;20346;-61
2022/03/24 12:56:45;;;;;;;29.25;17.98;;;;;;;;;;5074064;28;20052;-61
2022/03/24 12:59:12;;;;;;;29.55;19.02;;;;;;;;;;5072617;28;20051;-61
2022/03/24 13:01:39;;;;;;;28.27;18.38;;;;;;;;;;5071320;28;20123;-61
2022/03/24 13:04:06;;;;;;;27.23;16.33;;;;;;;;;;5073251;28;20091;-61
2022/03/24 13:06:39;;;;;;;30.20;16.35;;;;;;;;;;5074073;28;20036;-61
2022/03/24 13:09:13;;;;;;;30.60;17.45;;;;;;;;;;5073676;28;20024;-61
2022/03/24 13:11:48;;;;;;;29.88;17.80;;;;;;;;;;5073402;28;20048;-61
2022/03/24 13:14:14;;;;;;;33.42;18.90;;;;;;;;;;5072473;28;20073;-61
2022/03/24 13:16:40;;;;;;;27.25;16.88;;;;;;;;;;5073817;28;20032;-61
2022/03/24 13:19:06;;;;;;;30.48;18.75;;;;;;;;;;5069136;28;20090;-61
2022/03/24 13:21:32;;;;;;;29.23;18.25;;;;;;;;;;5061548;28;20568;-61
2022/03/24 13:23:58;;;;;;;25.45;16.65;;;;;;;;;;5073510;28;20097;-61
2022/03/24 13:26:24;;;;;;;28.95;17.02;;;;;;;;;;5073112;28;20043;-61
2022/03/24 13:28:56;;;;;;;25.83;16.33;;;;;;;;;;5072051;28;20115;-61
2022/03/24 13:31:29;;;;;;;26.55;16.33;;;;;;;;;;5072554;28;20044;-61
2022/03/24 13:33:55;;;;;;;27.08;16.80;;;;;;;;;;5073279;28;20048;-61
2022/03/24 13:36:21;;;;;;;29.73;17.23;;;;;;;;;;5072905;28;20051;-61
2022/03/24 13:38:47;;;;;;;30.00;16.05;;;;;;;;;;5055020;28;20044;-61
2022/03/24 13:41:13;;;;;;;28.17;17.17;;;;;;;;;;5073054;28;20040;-61
2022/03/24 13:43:39;;;;;;;22.95;14.18;;;;;;;;;;5072287;28;20086;-61
2022/03/24 13:46:05;;;;;;;28.73;14.75;;;;;;;;;;5072334;28;20044;-61
2022/03/24 13:48:32;;;;;;;31.50;13.80;;;;;;;;;;5072817;28;20052;-61
2022/03/24 13:51:05;;;;;;;23.80;13.30;;;;;;;;;;5072718;28;20048;-61
2022/03/24 13:53:32;;;;;;;25.00;14.23;;;;;;;;;;5072413;28;20585;-61
2022/03/24 13:56:08;;;;;;;28.70;17.15;;;;;;;;;;5072993;28;20040;-62
2022/03/24 13:58:35;;;;;;;29.02;17.30;;;;;;;;;;5071833;28;20043;-61
2022/03/24 14:01:02;;;;;;;24.23;12.38;;;;;;;;;;5072468;28;20040;-61
2022/03/24 14:03:28;;;;;;;25.42;13.93;;;;;;;;;;5061905;28;20422;-61
2022/03/24 14:05:57;;;;;;;23.88;14.13;;;;;;;;;;5072716;28;20032;-61
2022/03/24 14:08:37;;;;;;;22.08;13.27;;;;;;;;;;5072761;28;20044;-61
2022/03/24 14:11:11;;;;;;;26.60;13.38;;;;;;;;;;5072191;28;20136;-61
2022/03/24 14:13:37;;;;;;;25.70;13.95;;;;;;;;;;5072506;28;20047;-61
2022/03/24 14:16:08;;;;;;;26.42;13.45;;;;;;;;;;5072598;28;20036;-61
2022/03/24 14:18:34;;;;;;;25.73;12.73;;;;;;;;;;5070757;28;20509;-61
2022/03/24 14:21:00;;;;;;;26.95;12.75;;;;;;;;;;5072323;28;20036;-61
2022/03/24 14:23:32;;;;;;;26.25;13.30;;;;;;;;;;5072533;28;20044;-61